createdAt,value
2018-11-02T00:00:12.153Z,15.99
2018-11-02T00:02:41.157Z,16.01
2018-11-02T00:05:10.354Z,15.99
2018-11-02T00:07:39.781Z,15.99
2018-11-02T00:10:09.934Z,15.99
2018-11-02T00:12:39.000Z,15.99
2018-11-02T00:15:08.499Z,16.03
2018-11-02T00:17:37.725Z,16.00
2018-11-02T00:20:07.369Z,15.97
2018-11-02T00:22:36.892Z,15.96
2018-11-02T00:25:05.954Z,15.96
2018-11-02T00:27:35.078Z,15.93
2018-11-02T00:30:04.282Z,15.88
2018-11-02T00:32:33.458Z,15.85
2018-11-02T00:35:02.451Z,15.78
2018-11-02T00:37:31.881Z,15.77
2018-11-02T00:40:00.821Z,15.73
2018-11-02T00:42:30.123Z,15.68
2018-11-02T00:44:59.581Z,15.64
2018-11-02T00:47:28.504Z,15.70
2018-11-02T00:49:57.645Z,15.64
2018-11-02T00:52:26.761Z,15.62
2018-11-02T00:54:55.836Z,15.58
2018-11-02T00:57:25.153Z,15.54
2018-11-02T00:59:54.725Z,15.54
2018-11-02T01:02:23.886Z,15.51
2018-11-02T01:04:53.032Z,15.43
2018-11-02T01:07:22.257Z,15.40
2018-11-02T01:09:51.611Z,15.36
2018-11-02T01:12:21.053Z,15.36
2018-11-02T01:14:51.301Z,15.30
2018-11-02T01:17:20.521Z,15.31
2018-11-02T01:19:49.793Z,15.26
2018-11-02T01:22:19.431Z,15.24
2018-11-02T01:24:48.809Z,15.23
2018-11-02T01:27:18.120Z,15.26
2018-11-02T01:29:47.625Z,15.24
2018-11-02T01:32:16.833Z,15.13
2018-11-02T01:34:45.842Z,15.20
2018-11-02T01:37:15.352Z,15.21
2018-11-02T01:39:44.661Z,15.17
2018-11-02T01:42:13.778Z,15.18
2018-11-02T01:44:43.046Z,15.21
2018-11-02T01:47:12.194Z,15.20
2018-11-02T01:49:43.769Z,15.23
2018-11-02T01:52:12.846Z,15.27
2018-11-02T01:54:42.871Z,15.19
2018-11-02T01:57:12.136Z,15.17
2018-11-02T01:59:41.316Z,15.16
2018-11-02T02:02:10.311Z,15.26
2018-11-02T02:04:39.514Z,15.34
2018-11-02T02:07:08.598Z,15.37
2018-11-02T02:09:37.717Z,15.20
2018-11-02T02:12:07.364Z,15.23
2018-11-02T02:14:36.476Z,15.14
2018-11-02T02:17:05.642Z,15.21
2018-11-02T02:19:34.679Z,15.24
2018-11-02T02:22:03.771Z,15.22
2018-11-02T02:24:32.834Z,15.21
2018-11-02T02:27:04.128Z,15.23
2018-11-02T02:29:33.420Z,15.27
2018-11-02T02:32:02.612Z,15.28
2018-11-02T02:34:31.789Z,15.23
2018-11-02T02:37:01.009Z,15.18
2018-11-02T02:39:30.007Z,15.23
2018-11-02T02:41:59.212Z,15.24
2018-11-02T02:44:28.155Z,15.19
2018-11-02T02:46:57.361Z,15.09
2018-11-02T02:49:26.783Z,15.12
2018-11-02T02:51:55.953Z,14.93
2018-11-02T02:54:25.065Z,14.88
2018-11-02T02:56:54.375Z,14.97
2018-11-02T02:59:23.481Z,15.00
2018-11-02T03:01:52.445Z,14.90
2018-11-02T03:04:21.513Z,14.93
2018-11-02T03:06:50.689Z,14.80
2018-11-02T03:09:19.863Z,14.83
2018-11-02T03:11:50.036Z,14.79
2018-11-02T03:14:19.218Z,14.82
2018-11-02T03:16:48.339Z,14.87
2018-11-02T03:19:17.639Z,14.93
2018-11-02T03:21:46.677Z,14.88
2018-11-02T03:24:15.822Z,14.95
2018-11-02T03:26:44.796Z,15.08
2018-11-02T03:29:13.808Z,15.18
2018-11-02T03:31:42.829Z,15.25
2018-11-02T03:34:11.921Z,15.23
2018-11-02T03:36:41.007Z,15.22
2018-11-02T03:39:11.850Z,15.12
2018-11-02T03:41:41.462Z,15.05
2018-11-02T03:44:10.564Z,15.08
2018-11-02T03:46:39.886Z,15.01
2018-11-02T03:49:09.197Z,15.08
2018-11-02T03:51:38.234Z,15.10
2018-11-02T03:54:07.412Z,15.09
2018-11-02T03:56:37.448Z,15.21
2018-11-02T03:59:06.513Z,15.24
2018-11-02T04:01:35.693Z,15.19
2018-11-02T04:04:04.818Z,15.27
2018-11-02T04:06:34.047Z,15.29
2018-11-02T04:09:03.406Z,15.33
2018-11-02T04:11:33.483Z,15.41
2018-11-02T04:14:02.492Z,15.39
2018-11-02T04:16:31.554Z,15.33
2018-11-02T04:19:00.903Z,15.31
2018-11-02T04:21:34.060Z,15.21
2018-11-02T04:24:03.460Z,15.34
2018-11-02T04:26:32.491Z,15.42
2018-11-02T04:29:01.605Z,15.46
2018-11-02T04:31:30.803Z,15.37
2018-11-02T04:34:00.044Z,15.40
2018-11-02T04:36:29.203Z,15.41
2018-11-02T04:38:58.596Z,15.47
2018-11-02T04:41:27.717Z,15.50
2018-11-02T04:43:56.676Z,15.48
2018-11-02T04:46:26.260Z,15.53
2018-11-02T04:48:55.304Z,15.35
2018-11-02T04:51:25.041Z,15.35
2018-11-02T04:53:56.175Z,15.37
2018-11-02T04:56:26.077Z,15.34
2018-11-02T04:58:55.234Z,15.35
2018-11-02T05:01:24.209Z,15.46
2018-11-02T05:03:53.348Z,15.40
2018-11-02T05:06:22.476Z,15.41
2018-11-02T05:08:52.876Z,15.47
2018-11-02T05:11:22.203Z,15.53
2018-11-02T05:13:51.155Z,15.57
2018-11-02T05:16:20.297Z,15.57
2018-11-02T05:18:49.569Z,15.57
2018-11-02T05:21:18.723Z,15.57
2018-11-02T05:23:47.973Z,15.64
2018-11-02T05:26:17.037Z,15.64
2018-11-02T05:28:46.462Z,15.64
2018-11-02T05:31:15.633Z,15.71
2018-11-02T05:33:44.722Z,15.78
2018-11-02T05:36:13.931Z,15.79
2018-11-02T05:38:42.942Z,15.81
2018-11-02T05:41:12.708Z,15.90
2018-11-02T05:43:41.938Z,15.91
2018-11-02T05:46:11.748Z,15.94
2018-11-02T05:49:02.435Z,16.07
2018-11-02T05:51:31.699Z,16.09
2018-11-02T05:54:08.630Z,16.11
2018-11-02T05:56:58.598Z,16.13
2018-11-02T05:59:38.357Z,16.13
2018-11-02T06:02:31.948Z,16.16
2018-11-02T06:31:41.016Z,16.26
2018-11-02T06:34:12.200Z,16.20
2018-11-02T06:36:48.965Z,16.27
2018-11-02T06:39:20.214Z,16.13
2018-11-02T06:41:56.452Z,15.93
2018-11-02T06:44:41.127Z,16.07
2018-11-02T06:47:11.330Z,16.16
2018-11-02T06:49:45.772Z,16.27
2018-11-02T06:52:17.578Z,16.39
2018-11-02T06:54:55.323Z,16.44
2018-11-02T06:57:25.339Z,16.43
2018-11-02T07:00:01.089Z,16.49
2018-11-02T07:02:36.449Z,16.53
2018-11-02T07:05:08.705Z,16.51
2018-11-02T07:07:44.674Z,16.43
2018-11-02T07:10:14.614Z,16.55
2018-11-02T07:12:44.049Z,16.65
2018-11-02T07:15:17.324Z,16.65
2018-11-02T07:17:54.644Z,16.70
2018-11-02T07:20:24.410Z,16.64
2018-11-02T07:22:58.268Z,16.63
2018-11-02T07:25:29.372Z,16.61
2018-11-02T07:27:58.995Z,16.58
2018-11-02T07:30:37.324Z,16.33
2018-11-02T07:33:09.018Z,16.33
2018-11-02T07:35:46.228Z,16.43
2018-11-02T07:38:17.910Z,16.60
2018-11-02T07:40:47.614Z,16.73
2018-11-02T07:43:18.328Z,16.90
2018-11-02T07:45:50.015Z,16.86
2018-11-02T07:48:23.945Z,16.96
2018-11-02T07:51:07.573Z,17.08
2018-11-02T07:53:37.574Z,17.23
2018-11-02T07:56:06.947Z,17.20
2018-11-02T07:58:40.137Z,17.39
2018-11-02T08:01:30.625Z,17.53
2018-11-02T08:04:01.540Z,17.62
2018-11-02T08:06:38.085Z,17.77
2018-11-02T08:22:43.367Z,17.47
2018-11-02T08:25:13.888Z,17.66
2018-11-02T08:27:50.932Z,17.82
2018-11-02T08:30:22.412Z,18.04
2018-11-02T08:32:55.102Z,18.14
2018-11-02T08:35:46.120Z,18.23
2018-11-02T08:38:35.157Z,17.66
2018-11-02T08:41:07.394Z,17.76
2018-11-02T08:43:43.087Z,17.47
2018-11-02T09:00:32.348Z,17.22
2018-11-02T09:03:08.493Z,17.21
2018-11-02T09:05:38.115Z,17.27
2018-11-02T09:08:13.491Z,17.32
2018-11-02T09:10:44.293Z,17.58
2018-11-02T09:13:17.752Z,17.66
2018-11-02T09:15:48.218Z,17.47
2018-11-02T09:18:27.003Z,16.90
2018-11-02T09:20:56.747Z,16.84
2018-11-02T09:23:38.145Z,16.80
2018-11-02T09:26:08.088Z,17.20
2018-11-02T09:28:37.415Z,17.45
2018-11-02T09:31:06.701Z,17.61
2018-11-02T09:33:58.440Z,17.72
2018-11-02T09:36:28.330Z,17.54
2018-11-02T09:38:58.951Z,17.56
2018-11-02T09:41:28.667Z,17.67
2018-11-02T09:44:04.905Z,17.72
2018-11-02T09:46:34.588Z,17.80
2018-11-02T09:49:05.728Z,17.79
2018-11-02T09:51:35.809Z,16.83
2018-11-02T09:54:05.436Z,17.09
2018-11-02T09:56:37.709Z,17.34
2018-11-02T09:59:13.121Z,17.30
2018-11-02T10:01:46.134Z,17.24
2018-11-02T10:04:31.192Z,17.35
2018-11-02T10:07:04.570Z,17.38
2018-11-02T10:09:39.667Z,17.45
2018-11-02T10:12:10.029Z,17.54
2018-11-02T10:14:43.160Z,17.63
2018-11-02T10:17:13.038Z,17.66
2018-11-02T10:19:42.721Z,17.66
2018-11-02T10:22:12.166Z,17.71
2018-11-02T10:24:41.638Z,17.82
2018-11-02T10:27:11.400Z,17.85
2018-11-02T10:29:40.831Z,17.89
2018-11-02T10:32:10.292Z,17.98
2018-11-02T10:34:40.569Z,17.93
2018-11-02T10:37:17.342Z,17.95
2018-11-02T10:39:47.264Z,17.67
2018-11-02T10:42:17.389Z,17.80
2018-11-02T10:44:48.009Z,17.86
2018-11-02T10:47:17.388Z,17.92
2018-11-02T10:49:46.958Z,18.00
2018-11-02T10:52:19.731Z,17.98
2018-11-02T10:54:50.055Z,18.00
2018-11-02T10:57:20.385Z,18.02
2018-11-02T10:59:50.301Z,18.08
2018-11-02T11:02:24.339Z,18.13
2018-11-02T11:04:54.007Z,17.24
2018-11-02T11:07:23.626Z,17.20
2018-11-02T11:09:56.197Z,17.03
2018-11-02T11:12:26.062Z,17.08
2018-11-02T11:15:02.244Z,17.47
2018-11-02T11:17:34.536Z,17.45
2018-11-02T11:20:04.156Z,17.75
2018-11-02T11:22:34.899Z,17.77
2018-11-02T11:25:13.069Z,17.45
2018-11-02T11:27:43.735Z,17.91
2018-11-02T11:30:17.022Z,18.17
2018-11-02T11:32:48.222Z,18.38
2018-11-02T11:35:21.301Z,18.40
2018-11-02T11:37:50.854Z,18.21
2018-11-02T11:40:21.790Z,18.05
2018-11-02T11:42:52.739Z,17.75
2018-11-02T11:45:22.473Z,17.92
2018-11-02T11:47:55.385Z,17.97
2018-11-02T11:50:25.446Z,17.96
2018-11-02T11:52:58.590Z,17.42
2018-11-02T11:55:31.643Z,17.63
2018-11-02T11:58:01.592Z,17.73
2018-11-02T12:00:31.852Z,18.07
2018-11-02T12:03:02.477Z,18.01
2018-11-02T12:05:32.027Z,18.13
2018-11-02T12:08:07.698Z,17.98
2018-11-02T12:10:37.788Z,18.21
2018-11-02T12:13:07.438Z,18.17
2018-11-02T12:15:37.733Z,18.37
2018-11-02T12:18:08.813Z,18.19
2018-11-02T12:20:57.040Z,18.28
2018-11-02T12:23:26.799Z,18.34
2018-11-02T12:25:56.498Z,18.42
2018-11-02T12:28:26.939Z,18.44
2018-11-02T12:30:57.229Z,17.87
2018-11-02T12:33:26.792Z,18.18
2018-11-02T12:36:03.192Z,18.26
2018-11-02T12:38:39.189Z,18.05
2018-11-02T12:41:08.672Z,18.04
2018-11-02T12:43:38.408Z,18.16
2018-11-02T12:46:07.729Z,18.22
2018-11-02T12:48:41.068Z,18.22
2018-11-02T12:51:15.742Z,18.26
2018-11-02T12:54:11.636Z,18.00
2018-11-02T12:56:50.534Z,18.06
2018-11-02T12:59:19.907Z,18.07
2018-11-02T13:01:49.533Z,18.14
2018-11-02T13:04:18.683Z,17.81
2018-11-02T13:06:47.808Z,17.53
2018-11-02T13:09:36.749Z,17.78
2018-11-02T13:12:13.358Z,17.87
2018-11-02T13:15:15.019Z,17.93
2018-11-02T13:17:45.121Z,17.90
2018-11-02T13:20:15.183Z,17.92
2018-11-02T13:22:44.784Z,17.95
2018-11-02T13:25:17.351Z,17.95
2018-11-02T13:27:49.919Z,17.87
2018-11-02T13:30:22.232Z,17.83
2018-11-02T13:32:51.509Z,17.63
2018-11-02T13:35:22.875Z,17.75
2018-11-02T13:37:52.455Z,17.74
2018-11-02T13:40:24.168Z,17.74
2018-11-02T13:42:53.462Z,17.76
2018-11-02T13:45:22.562Z,17.79
2018-11-02T13:47:51.593Z,17.64
2018-11-02T13:50:21.078Z,17.66
2018-11-02T13:52:50.175Z,17.55
2018-11-02T13:55:19.549Z,17.63
2018-11-02T13:57:49.769Z,17.67
2018-11-02T14:00:19.406Z,17.65
2018-11-02T14:02:48.616Z,17.58
2018-11-02T14:05:18.269Z,17.41
2018-11-02T14:07:47.345Z,17.42
2018-11-02T14:10:16.382Z,17.48
2018-11-02T14:12:45.690Z,17.52
2018-11-02T14:15:16.051Z,17.48
2018-11-02T14:17:45.256Z,17.56
2018-11-02T14:20:14.966Z,17.44
2018-11-02T14:22:44.279Z,17.50
2018-11-02T14:25:14.779Z,17.35
2018-11-02T14:27:44.044Z,17.40
2018-11-02T14:30:14.516Z,17.35
2018-11-02T14:32:44.008Z,17.21
2018-11-02T14:35:14.426Z,17.15
2018-11-02T14:37:44.343Z,17.21
2018-11-02T14:40:15.432Z,17.23
2018-11-02T14:42:44.790Z,17.21
2018-11-02T14:45:17.111Z,17.35
2018-11-02T14:47:49.181Z,17.26
2018-11-02T14:50:18.231Z,17.16
2018-11-02T14:52:47.408Z,17.19
2018-11-02T14:55:16.849Z,17.22
2018-11-02T14:57:46.077Z,17.15
2018-11-02T15:00:15.200Z,17.06
2018-11-02T15:02:44.387Z,16.98
2018-11-02T15:05:14.238Z,17.02
2018-11-02T15:07:43.790Z,16.99
2018-11-02T15:10:18.010Z,16.95
2018-11-02T15:12:47.091Z,16.88
2018-11-02T15:15:16.251Z,16.82
2018-11-02T15:17:45.398Z,16.84
2018-11-02T15:20:15.273Z,16.89
2018-11-02T15:22:44.285Z,16.85
2018-11-02T15:25:13.430Z,16.78
2018-11-02T15:27:42.518Z,16.69
2018-11-02T15:30:13.750Z,16.75
2018-11-02T15:32:44.149Z,16.89
2018-11-02T15:35:13.640Z,16.86
2018-11-02T15:37:43.163Z,16.77
2018-11-02T15:40:13.328Z,16.74
2018-11-02T15:42:43.060Z,16.61
2018-11-02T15:45:13.825Z,16.70
2018-11-02T15:47:43.536Z,16.73
2018-11-02T15:50:13.235Z,16.72
2018-11-02T15:52:42.918Z,16.71
2018-11-02T15:55:12.895Z,16.71
2018-11-02T15:57:42.520Z,16.60
2018-11-02T16:00:15.561Z,16.50
2018-11-02T16:02:45.614Z,16.47
2018-11-02T16:05:14.783Z,16.34
2018-11-02T16:07:44.167Z,16.29
2018-11-02T16:10:13.534Z,16.26
2018-11-02T16:12:43.503Z,16.29
2018-11-02T16:15:13.421Z,16.30
2018-11-02T16:17:42.640Z,16.23
2018-11-02T16:20:13.984Z,16.09
2018-11-02T16:22:43.672Z,15.99
2018-11-02T16:25:13.144Z,16.01
2018-11-02T16:27:43.156Z,15.95
2018-11-02T16:30:13.453Z,15.80
2018-11-02T16:32:42.807Z,15.78
2018-11-02T16:35:12.443Z,15.80
2018-11-02T16:37:41.638Z,15.76
2018-11-02T16:40:13.757Z,15.59
2018-11-02T16:42:43.389Z,15.59
2018-11-02T16:45:13.746Z,15.65
2018-11-02T16:47:43.377Z,15.59
2018-11-02T16:50:13.984Z,15.40
2018-11-02T16:52:43.728Z,15.44
2018-11-02T16:55:12.909Z,15.45
2018-11-02T16:57:42.830Z,15.45
2018-11-02T17:00:16.627Z,15.28
2018-11-02T17:02:47.276Z,15.35
2018-11-02T17:05:16.791Z,15.44
2018-11-02T17:07:46.017Z,15.38
2018-11-02T17:10:16.029Z,15.20
2018-11-02T17:12:45.564Z,15.16
2018-11-02T17:15:16.094Z,15.06
2018-11-02T17:17:45.206Z,14.90
2018-11-02T17:20:15.830Z,14.78
2018-11-02T17:25:19.683Z,14.73
2018-11-02T17:27:48.865Z,14.70
2018-11-02T17:30:19.439Z,14.63
2018-11-02T17:32:48.947Z,14.65
2018-11-02T17:35:18.332Z,14.64
2018-11-02T17:37:47.536Z,14.68
2018-11-02T17:40:17.148Z,14.58
2018-11-02T17:42:46.365Z,14.66
2018-11-02T17:45:15.588Z,14.64
2018-11-02T17:47:45.137Z,14.52
2018-11-02T17:50:15.387Z,14.37
2018-11-02T17:52:44.912Z,14.41
2018-11-02T17:55:14.129Z,14.32
2018-11-02T17:57:43.052Z,14.17
2018-11-02T18:00:13.575Z,14.12
2018-11-02T18:02:42.905Z,14.23
2018-11-02T18:05:12.470Z,14.26
2018-11-02T18:07:41.921Z,14.22
2018-11-02T18:10:12.512Z,14.12
2018-11-02T18:12:41.665Z,14.16
2018-11-02T18:15:11.689Z,14.15
2018-11-02T18:17:42.392Z,14.02
2018-11-02T18:20:13.980Z,13.90
2018-11-02T18:22:43.276Z,13.86
2018-11-02T18:25:12.782Z,13.90
2018-11-02T18:27:42.553Z,13.84
2018-11-02T18:30:12.252Z,13.74
2018-11-02T18:32:41.175Z,13.71
2018-11-02T18:35:10.867Z,13.79
2018-11-02T18:37:39.937Z,13.80
2018-11-02T18:40:10.737Z,13.69
2018-11-02T18:42:39.955Z,13.70
2018-11-02T18:45:12.419Z,13.74
2018-11-02T18:47:49.847Z,13.78
2018-11-02T18:50:20.177Z,13.62
2018-11-02T18:52:50.077Z,13.55
2018-11-02T18:55:20.038Z,13.54
2018-11-02T18:57:49.510Z,13.52
2018-11-02T19:00:19.022Z,13.46
2018-11-02T19:02:48.447Z,13.41
2018-11-02T19:05:18.803Z,13.39
2018-11-02T19:07:47.889Z,13.38
2018-11-02T19:10:17.220Z,13.35
2018-11-02T19:12:47.540Z,13.33
2018-11-02T19:16:19.643Z,13.34
2018-11-02T19:18:50.835Z,13.28
2018-11-02T19:21:20.301Z,13.15
2018-11-02T19:23:49.288Z,13.22
2018-11-02T19:26:19.361Z,13.24
2018-11-02T19:28:48.374Z,13.27
2018-11-02T19:31:17.439Z,13.16
2018-11-02T19:33:46.899Z,13.15
2018-11-02T19:36:16.063Z,13.07
2018-11-02T19:38:46.268Z,12.97
2018-11-02T19:41:15.316Z,12.89
2018-11-02T19:43:46.052Z,12.97
2018-11-02T19:46:15.381Z,13.01
2018-11-02T19:48:45.458Z,12.99
2018-11-02T19:51:14.540Z,12.83
2018-11-02T19:53:43.907Z,12.93
2018-11-02T19:56:13.085Z,12.95
2018-11-02T19:58:42.250Z,12.88
2018-11-02T20:01:11.540Z,12.78
2018-11-02T20:03:40.964Z,12.88
2018-11-02T20:06:10.056Z,12.94
2018-11-02T20:08:39.424Z,12.92
2018-11-02T20:11:08.489Z,12.80
2018-11-02T20:13:37.686Z,12.74
2018-11-02T20:16:07.365Z,12.65
2018-11-02T20:18:47.855Z,12.62
2018-11-02T20:21:17.147Z,12.52
2018-11-02T20:23:46.228Z,12.48
2018-11-02T20:26:15.367Z,12.42
2018-11-02T20:28:44.378Z,12.44
2018-11-02T20:31:13.499Z,12.51
2018-11-02T20:33:42.883Z,12.53
2018-11-02T20:36:12.097Z,12.52
2018-11-02T20:38:41.053Z,12.60
2018-11-02T20:41:10.532Z,12.65
2018-11-02T20:43:39.463Z,12.63
2018-11-02T20:46:08.485Z,12.68
2018-11-02T20:48:37.755Z,12.74
2018-11-02T20:51:07.285Z,12.87
2018-11-02T20:53:36.473Z,13.02
2018-11-02T20:56:05.837Z,13.06
2018-11-02T20:58:34.983Z,13.09
2018-11-02T21:01:03.990Z,13.15
2018-11-02T21:06:07.317Z,13.20
2018-11-02T21:08:36.641Z,13.20
2018-11-02T21:11:05.828Z,13.16
2018-11-02T21:13:34.773Z,13.07
2018-11-02T21:16:04.123Z,13.12
2018-11-02T21:18:33.312Z,13.08
2018-11-02T21:21:02.387Z,13.17
2018-11-02T21:23:31.578Z,13.18
2018-11-02T21:26:00.742Z,12.99
2018-11-02T21:28:29.855Z,12.93
2018-11-02T21:30:58.958Z,12.97
2018-11-02T21:33:28.105Z,12.73
2018-11-02T21:35:57.179Z,12.82
2018-11-02T21:38:27.192Z,13.02
2018-11-02T21:40:56.220Z,13.13
2018-11-02T21:43:25.356Z,13.04
2018-11-02T21:45:54.783Z,12.96
2018-11-02T21:48:23.849Z,13.17
2018-11-02T21:50:52.903Z,13.23
2018-11-02T21:53:22.165Z,13.30
2018-11-02T21:55:51.184Z,13.36
2018-11-02T21:58:20.411Z,13.29
2018-11-02T22:00:49.732Z,13.25
2018-11-02T22:03:18.768Z,13.22
2018-11-02T22:05:47.866Z,13.17
2018-11-02T22:08:17.036Z,13.03
2018-11-02T22:10:45.948Z,13.16
2018-11-02T22:13:15.103Z,13.27
2018-11-02T22:15:44.266Z,13.38
2018-11-02T22:18:13.460Z,13.51
2018-11-02T22:20:42.677Z,13.56
2018-11-02T22:23:11.710Z,13.65
2018-11-02T22:25:40.744Z,13.71
2018-11-02T22:28:09.921Z,13.69
2018-11-02T22:30:39.017Z,13.69
2018-11-02T22:33:08.082Z,13.68
2018-11-02T22:35:37.191Z,13.60
2018-11-02T22:38:06.160Z,13.53
2018-11-02T22:40:40.189Z,13.57
2018-11-02T22:43:09.413Z,13.57
2018-11-02T22:45:38.567Z,13.53
2018-11-02T22:48:12.992Z,13.56
2018-11-02T22:50:42.095Z,13.60
2018-11-02T22:53:11.227Z,13.56
2018-11-02T22:55:40.705Z,13.56
2018-11-02T22:58:10.000Z,13.53
2018-11-02T23:00:44.825Z,13.54
2018-11-02T23:03:14.048Z,13.56
2018-11-02T23:05:43.182Z,13.63
2018-11-02T23:08:12.883Z,13.66
2018-11-02T23:10:42.077Z,13.67
2018-11-02T23:13:11.156Z,13.70
2018-11-02T23:15:40.513Z,13.67
2018-11-02T23:18:09.572Z,13.66
2018-11-02T23:20:38.655Z,13.65
2018-11-02T23:23:07.765Z,13.65
2018-11-02T23:25:36.700Z,13.69
2018-11-02T23:28:05.852Z,13.65
2018-11-02T23:30:35.163Z,13.65
2018-11-02T23:33:04.400Z,13.53
2018-11-02T23:35:33.421Z,13.54
2018-11-02T23:38:02.609Z,13.55
2018-11-02T23:40:31.829Z,13.55
2018-11-02T23:43:00.888Z,13.51
2018-11-02T23:45:29.922Z,13.51
2018-11-02T23:48:03.997Z,13.48
2018-11-02T23:50:34.099Z,13.38
2018-11-02T23:53:03.232Z,13.29
2018-11-02T23:55:32.251Z,13.18
2018-11-02T23:58:01.739Z,13.17
